Time;durP1;ratioP1;P1;durP2;ratioP2;P2;SDS_P1;SDS_P2;PMS_P1;PMS_P2;Temp;Humidity;BMP_temperature;BMP_pressure;BME280_temperature;BME280_humidity;BME280_pressure;Samples;Min_cycle;Max_cycle;Signal;HPM_P1;HPM_P2
2021/04/16 00:00:03;;;;;;;3.97;1.70;;;6.30;53.00;;;;;;5087344;28;20049;-74
2021/04/16 00:02:30;;;;;;;4.32;2.00;;;6.20;53.00;;;;;;5099387;28;20401;-73
2021/04/16 00:04:56;;;;;;;2.22;1.80;;;6.20;53.40;;;;;;5088218;28;20121;-73
2021/04/16 00:07:23;;;;;;;2.75;1.77;;;6.30;53.50;;;;;;5090515;28;20126;-74
2021/04/16 00:09:49;;;;;;;2.40;1.90;;;6.30;53.20;;;;;;5098118;28;20056;-74
2021/04/16 00:12:16;;;;;;;2.60;1.67;;;6.20;53.40;;;;;;5087182;28;20044;-73
2021/04/16 00:14:42;;;;;;;3.78;1.85;;;6.30;53.40;;;;;;5107326;28;20048;-73
2021/04/16 00:17:09;;;;;;;4.15;1.95;;;6.50;53.10;;;;;;5079947;28;20048;-73
2021/04/16 00:19:36;;;;;;;3.60;1.80;;;6.40;53.10;;;;;;5078396;28;20048;-74
2021/04/16 00:22:02;;;;;;;2.03;1.52;;;6.30;53.50;;;;;;5088106;28;20048;-75
2021/04/16 00:24:29;;;;;;;2.53;1.80;;;6.30;53.60;;;;;;5089846;28;20529;-73
2021/04/16 00:26:56;;;;;;;5.82;1.83;;;6.40;53.20;;;;;;5089593;28;20093;-74
2021/04/16 00:29:22;;;;;;;5.22;2.20;;;6.40;53.60;;;;;;5085836;28;20048;-73
2021/04/16 00:31:53;;;;;;;4.10;1.80;;;6.30;53.50;;;;;;5079409;28;20087;-73
2021/04/16 00:34:25;;;;;;;4.72;1.88;;;6.50;53.30;;;;;;5103193;28;20086;-73
2021/04/16 00:36:53;;;;;;;3.10;1.80;;;6.20;53.60;;;;;;5086575;28;20040;-73
2021/04/16 00:39:21;;;;;;;2.33;1.83;;;6.20;53.70;;;;;;5093788;28;20430;-74
2021/04/16 00:41:49;;;;;;;3.78;1.90;;;6.10;54.00;;;;;;5095347;28;20051;-74
2021/04/16 00:44:16;;;;;;;2.83;1.55;;;5.90;54.00;;;;;;5092140;28;20136;-74
2021/04/16 00:46:46;;;;;;;3.08;1.70;;;6.10;54.00;;;;;;5094291;28;20498;-73
2021/04/16 00:49:26;;;;;;;3.15;1.92;;;6.20;54.00;;;;;;5085516;28;20407;-74
2021/04/16 00:51:59;;;;;;;2.85;2.05;;;6.10;54.00;;;;;;5107134;28;20097;-74
2021/04/16 00:54:31;;;;;;;2.67;1.58;;;6.10;54.00;;;;;;5090296;28;20367;-74
2021/04/16 00:56:58;;;;;;;3.90;2.00;;;6.10;54.20;;;;;;5089645;28;20098;-74
2021/04/16 00:59:28;;;;;;;3.92;1.60;;;6.00;54.50;;;;;;5091029;28;20040;-74
2021/04/16 01:01:56;;;;;;;3.70;2.00;;;6.00;54.80;;;;;;5092199;28;20113;-75
2021/04/16 01:04:23;;;;;;;2.45;1.95;;;6.00;55.00;;;;;;5085836;28;20479;-74
2021/04/16 01:06:51;;;;;;;4.07;1.98;;;6.00;55.10;;;;;;5092802;28;20052;-74
2021/04/16 01:09:17;;;;;;;3.30;1.63;;;5.90;55.30;;;;;;5091980;28;20048;-74
2021/04/16 01:11:44;;;;;;;4.38;2.08;;;5.80;55.50;;;;;;5081302;28;20120;-74
2021/04/16 01:14:11;;;;;;;6.20;2.10;;;5.90;55.70;;;;;;5091489;28;20522;-74
2021/04/16 01:16:38;;;;;;;2.83;1.80;;;5.80;55.80;;;;;;5094153;28;20052;-75
2021/04/16 01:19:14;;;;;;;4.65;2.13;;;5.80;56.20;;;;;;5092589;28;20044;-74
2021/04/16 01:21:48;;;;;;;3.15;1.90;;;5.80;56.20;;;;;;5096789;28;20097;-74
2021/04/16 01:24:30;;;;;;;3.13;1.95;;;5.80;56.10;;;;;;5098170;28;20457;-74
2021/04/16 01:27:43;;;;;;;4.53;2.25;;;5.70;56.50;;;;;;5114922;27;20101;-74
2021/04/16 01:30:17;;;;;;;5.38;1.95;;;5.90;56.30;;;;;;5088413;28;20044;-74
2021/04/16 01:32:44;;;;;;;4.32;2.08;;;6.40;56.30;;;;;;5090432;28;20056;-74
2021/04/16 01:35:16;;;;;;;2.95;1.80;;;6.10;55.80;;;;;;5088205;28;20047;-73
2021/04/16 01:37:43;;;;;;;4.97;2.33;;;5.90;56.10;;;;;;5092832;28;20043;-73
2021/04/16 01:40:12;;;;;;;3.30;2.30;;;6.00;56.00;;;;;;5089310;28;20380;-73
2021/04/16 01:42:39;;;;;;;3.33;2.38;;;6.00;55.90;;;;;;5095885;28;20048;-73
2021/04/16 01:45:14;;;;;;;5.57;2.60;;;6.00;56.00;;;;;;5092273;28;20056;-73
2021/04/16 01:47:40;;;;;;;5.32;2.70;;;6.10;55.90;;;;;;5094330;28;20051;-73
2021/04/16 01:50:08;;;;;;;4.32;2.70;;;6.10;56.00;;;;;;5090774;28;20040;-72
2021/04/16 01:52:35;;;;;;;4.97;2.92;;;6.00;56.00;;;;;;5093870;28;20044;-73
2021/04/16 01:55:04;;;;;;;6.82;3.25;;;6.00;56.10;;;;;;5089675;28;20055;-73
2021/04/16 01:57:34;;;;;;;5.07;2.85;;;6.10;56.20;;;;;;5089820;28;20040;-73
2021/04/16 02:00:07;;;;;;;4.35;2.45;;;6.20;55.70;;;;;;5087383;28;20046;-73
2021/04/16 02:02:35;;;;;;;3.72;2.20;;;6.20;55.60;;;;;;5093577;28;20113;-74
2021/04/16 02:05:03;;;;;;;3.83;2.13;;;6.20;55.70;;;;;;5103789;28;20040;-73
2021/04/16 02:07:30;;;;;;;4.47;1.60;;;6.10;55.70;;;;;;5086132;28;20051;-73
2021/04/16 02:09:57;;;;;;;7.97;2.13;;;6.00;56.10;;;;;;5103302;28;20051;-73
2021/04/16 02:12:25;;;;;;;4.05;2.08;;;6.20;56.30;;;;;;5100387;28;20048;-73
2021/04/16 02:14:52;;;;;;;3.47;2.22;;;5.90;56.40;;;;;;5087813;28;20445;-73
2021/04/16 02:17:23;;;;;;;4.22;2.10;;;5.90;56.60;;;;;;5094901;28;20101;-74
2021/04/16 02:19:50;;;;;;;3.45;2.33;;;6.10;56.70;;;;;;5084275;28;20151;-74
2021/04/16 02:22:20;;;;;;;3.38;2.15;;;6.00;56.80;;;;;;5093273;28;20469;-73
2021/04/16 02:24:47;;;;;;;3.58;2.28;;;6.00;57.00;;;;;;5089877;28;20196;-74
2021/04/16 02:27:15;;;;;;;4.97;2.25;;;6.00;57.00;;;;;;5094215;28;20106;-72
2021/04/16 02:29:42;;;;;;;5.15;2.30;;;5.90;57.10;;;;;;5101881;28;20384;-73
2021/04/16 02:32:09;;;;;;;5.65;2.45;;;6.00;57.10;;;;;;5088067;28;20036;-73
2021/04/16 02:34:37;;;;;;;4.05;2.33;;;6.00;57.20;;;;;;5088467;28;20198;-73
2021/04/16 02:37:09;;;;;;;4.13;2.60;;;6.00;57.40;;;;;;5089607;28;20121;-73
2021/04/16 02:39:37;;;;;;;4.50;2.42;;;5.80;57.60;;;;;;5090560;28;20437;-73
2021/04/16 02:42:04;;;;;;;4.65;2.58;;;5.80;57.70;;;;;;5081093;28;20467;-73
2021/04/16 02:44:30;;;;;;;4.90;2.90;;;5.80;57.90;;;;;;5101358;28;20486;-73
2021/04/16 02:46:57;;;;;;;8.48;3.65;;;6.00;57.90;;;;;;5086456;28;20056;-75
2021/04/16 02:49:25;;;;;;;6.78;2.95;;;6.10;57.50;;;;;;5083050;28;20127;-74
2021/04/16 02:51:51;;;;;;;8.43;3.55;;;6.20;57.80;;;;;;5096030;28;20483;-74
2021/04/16 02:54:19;;;;;;;4.95;3.20;;;6.10;58.00;;;;;;5091510;28;20059;-74
2021/04/16 02:56:46;;;;;;;4.78;3.17;;;6.10;58.50;;;;;;5089184;28;20475;-74
2021/04/16 02:59:12;;;;;;;8.23;4.07;;;5.90;59.00;;;;;;5092943;28;20045;-75
2021/04/16 03:01:41;;;;;;;6.72;4.35;;;6.00;59.60;;;;;;5079801;28;20048;-74
2021/04/16 03:04:11;;;;;;;5.32;3.72;;;6.00;59.90;;;;;;5090034;28;20060;-74
2021/04/16 03:06:38;;;;;;;6.95;3.63;;;5.90;59.70;;;;;;5085300;28;20060;-74
2021/04/16 03:09:06;;;;;;;7.90;3.55;;;6.00;60.50;;;;;;5091019;28;20052;-74
2021/04/16 03:11:32;;;;;;;4.70;3.40;;;5.90;60.60;;;;;;5089848;28;20047;-74
2021/04/16 03:13:59;;;;;;;4.32;3.35;;;5.90;60.40;;;;;;5088866;28;20589;-74
2021/04/16 03:16:27;;;;;;;8.18;3.53;;;6.10;61.00;;;;;;5081644;28;20055;-74
2021/04/16 03:18:57;;;;;;;5.03;3.10;;;5.80;60.80;;;;;;5085711;28;20040;-75
2021/04/16 03:21:31;;;;;;;6.78;3.35;;;5.80;60.90;;;;;;5092108;28;20044;-75
2021/04/16 03:23:58;;;;;;;3.35;2.83;;;5.80;60.50;;;;;;5093076;28;20392;-74
2021/04/16 03:26:25;;;;;;;5.45;3.47;;;5.80;60.40;;;;;;5088069;28;20161;-75
2021/04/16 03:28:54;;;;;;;7.82;3.60;;;5.70;60.40;;;;;;5089173;28;20056;-74
2021/04/16 03:31:21;;;;;;;4.57;3.40;;;6.10;60.80;;;;;;5089009;28;20048;-74
2021/04/16 03:33:48;;;;;;;8.07;3.65;;;5.80;60.50;;;;;;5092026;28;20127;-74
2021/04/16 03:36:15;;;;;;;8.20;3.75;;;5.60;61.00;;;;;;5090520;28;20071;-74
2021/04/16 03:38:42;;;;;;;8.35;3.38;;;5.60;61.90;;;;;;5088653;28;20175;-74
2021/04/16 03:41:09;;;;;;;5.80;3.33;;;5.60;61.50;;;;;;5085639;28;20098;-74
2021/04/16 03:43:36;;;;;;;5.75;3.83;;;5.50;62.10;;;;;;5099138;28;20059;-74
2021/04/16 03:46:03;;;;;;;7.32;3.78;;;5.50;61.90;;;;;;5082814;28;20098;-74
2021/04/16 03:48:29;;;;;;;8.30;4.03;;;5.40;62.70;;;;;;5090503;28;20056;-74
2021/04/16 03:50:57;;;;;;;5.68;3.97;;;5.30;63.10;;;;;;5086151;28;20127;-73
2021/04/16 03:53:24;;;;;;;4.75;3.50;;;5.30;63.70;;;;;;5087291;28;20040;-74
2021/04/16 03:55:50;;;;;;;5.82;3.83;;;5.30;63.70;;;;;;5091595;28;20048;-74
2021/04/16 03:58:17;;;;;;;7.10;4.18;;;5.40;64.00;;;;;;5089942;28;20101;-74
2021/04/16 04:00:43;;;;;;;6.38;3.90;;;5.30;64.40;;;;;;5089665;28;20403;-74
2021/04/16 04:03:12;;;;;;;7.90;4.47;;;5.30;65.00;;;;;;5095525;28;20055;-73
2021/04/16 04:05:39;;;;;;;8.20;4.57;;;5.50;64.70;;;;;;5088725;28;20505;-73
2021/04/16 04:08:06;;;;;;;7.00;4.63;;;5.30;65.50;;;;;;5066389;28;20044;-73
2021/04/16 04:10:37;;;;;;;5.97;3.90;;;5.30;65.80;;;;;;5085281;28;20072;-73
2021/04/16 04:13:05;;;;;;;;;;;5.30;66.10;;;;;;5095487;28;20109;-73
2021/04/16 04:15:32;;;;;;;6.70;4.20;;;5.40;66.90;;;;;;5094638;28;20325;-73
2021/04/16 04:17:58;;;;;;;8.25;5.07;;;5.40;66.30;;;;;;5093765;28;20057;-73
2021/04/16 04:20:29;;;;;;;6.78;4.88;;;5.40;67.20;;;;;;5090417;28;20052;-73
2021/04/16 04:22:56;;;;;;;;;;;5.40;66.60;;;;;;5100896;28;20135;-74
2021/04/16 04:25:24;;;;;;;8.93;4.53;;;5.60;66.50;;;;;;5098895;28;19924;-73
2021/04/16 04:27:53;;;;;;;8.95;4.40;;;5.20;66.80;;;;;;5091135;28;20117;-72
2021/04/16 04:30:26;;;;;;;8.05;4.53;;;5.10;67.00;;;;;;5091126;28;20045;-72
2021/04/16 04:32:53;;;;;;;8.15;4.60;;;5.10;66.80;;;;;;5102201;28;20043;-73
2021/04/16 04:35:21;;;;;;;8.00;4.60;;;5.10;66.90;;;;;;5090518;28;20055;-73
2021/04/16 04:37:48;;;;;;;8.13;4.50;;;5.30;66.90;;;;;;5093560;28;20055;-73
2021/04/16 04:40:18;;;;;;;10.45;4.55;;;5.30;67.20;;;;;;5087376;28;20132;-73
2021/04/16 04:42:45;;;;;;;6.60;3.67;;;5.00;67.10;;;;;;5095493;28;20077;-73
2021/04/16 04:45:12;;;;;;;8.43;4.05;;;5.00;66.90;;;;;;5095872;28;20093;-73
2021/04/16 04:47:38;;;;;;;6.75;4.05;;;5.10;66.70;;;;;;5084698;28;20060;-73
2021/04/16 04:50:07;;;;;;;8.38;4.30;;;5.30;66.30;;;;;;5078730;28;20054;-73
2021/04/16 04:52:36;;;;;;;8.65;4.20;;;5.10;65.50;;;;;;5086004;28;20056;-73
2021/04/16 04:55:07;;;;;;;6.90;3.90;;;5.00;66.10;;;;;;5090686;28;20097;-74
2021/04/16 04:57:34;;;;;;;6.78;4.25;;;4.90;66.50;;;;;;5103034;28;20400;-74
2021/04/16 05:00:00;;;;;;;14.02;4.38;;;4.90;66.70;;;;;;5085180;28;20110;-74
2021/04/16 05:02:26;;;;;;;8.25;3.80;;;5.00;66.40;;;;;;5081139;28;20404;-74
2021/04/16 05:04:53;;;;;;;9.25;4.25;;;5.10;66.00;;;;;;5088163;28;20048;-74
2021/04/16 05:07:22;;;;;;;9.38;4.38;;;5.40;66.10;;;;;;5091850;28;20134;-74
2021/04/16 05:09:48;;;;;;;8.43;4.50;;;5.20;65.80;;;;;;5091246;28;20075;-74
2021/04/16 05:12:14;;;;;;;10.40;4.40;;;5.20;66.00;;;;;;5089438;28;20044;-72
2021/04/16 05:14:41;;;;;;;9.50;4.85;;;5.30;65.50;;;;;;5089024;28;20123;-74
2021/04/16 05:17:08;;;;;;;9.88;4.72;;;5.50;65.00;;;;;;5107562;28;20044;-74
2021/04/16 05:19:35;;;;;;;12.75;5.38;;;5.40;64.70;;;;;;5089062;28;20051;-74
2021/04/16 05:22:04;;;;;;;8.70;5.57;;;5.40;64.60;;;;;;5078293;28;20049;-72
2021/04/16 05:24:32;;;;;;;9.77;5.47;;;5.50;64.50;;;;;;5084078;28;20048;-73
2021/04/16 05:27:07;;;;;;;11.30;5.85;;;5.60;64.90;;;;;;5087690;28;20086;-73
2021/04/16 05:29:34;;;;;;;12.45;5.57;;;5.60;64.70;;;;;;5092950;28;20540;-74
2021/04/16 05:32:00;;;;;;;11.27;6.35;;;5.80;64.10;;;;;;5092511;28;20048;-72
2021/04/16 05:34:27;;;;;;;12.13;5.22;;;5.80;63.90;;;;;;5082491;28;20040;-73
2021/04/16 05:36:54;;;;;;;15.05;6.38;;;6.00;63.40;;;;;;5092415;28;20048;-80
2021/04/16 05:39:22;;;;;;;9.52;5.03;;;5.90;63.50;;;;;;5089881;28;20051;-79
2021/04/16 05:41:48;;;;;;;8.63;5.03;;;5.70;63.70;;;;;;5082057;28;20080;-78
2021/04/16 05:44:15;;;;;;;9.10;5.50;;;5.70;64.30;;;;;;5087106;28;20055;-79
2021/04/16 05:46:41;;;;;;;8.60;4.55;;;6.00;64.50;;;;;;5089847;28;20052;-79
2021/04/16 05:49:08;;;;;;;10.15;4.97;;;6.70;62.50;;;;;;5091005;28;20520;-80
2021/04/16 05:51:35;;;;;;;7.90;4.85;;;7.50;59.30;;;;;;5089263;28;20036;-80
2021/04/16 05:54:02;;;;;;;9.25;4.78;;;7.40;58.60;;;;;;5083815;28;20098;-80
2021/04/16 05:56:29;;;;;;;7.38;4.38;;;7.50;59.00;;;;;;5093044;28;20456;-80
2021/04/16 05:58:55;;;;;;;12.73;4.75;;;7.10;59.10;;;;;;5088515;28;20059;-78
2021/04/16 06:01:22;;;;;;;10.18;4.50;;;6.90;60.00;;;;;;5083250;28;20051;-79
2021/04/16 06:03:49;;;;;;;9.75;4.47;;;6.70;60.20;;;;;;5091273;28;20101;-78
2021/04/16 06:06:17;;;;;;;7.07;4.50;;;6.90;60.40;;;;;;5089791;28;20430;-79
2021/04/16 06:08:44;;;;;;;6.20;4.28;;;6.80;60.10;;;;;;5088928;28;20059;-79
2021/04/16 06:11:11;;;;;;;7.82;4.25;;;6.90;59.80;;;;;;5089057;28;20044;-79
2021/04/16 06:13:39;;;;;;;7.68;4.55;;;7.00;59.90;;;;;;5087628;28;20052;-79
2021/04/16 06:16:08;;;;;;;8.65;4.55;;;7.10;59.50;;;;;;5089231;28;20040;-79
2021/04/16 06:18:36;;;;;;;8.85;4.85;;;7.20;59.70;;;;;;5088281;28;20071;-80
2021/04/16 06:21:04;;;;;;;8.63;4.40;;;7.00;59.60;;;;;;5084258;28;20063;-79
2021/04/16 06:23:31;;;;;;;10.32;4.57;;;7.00;59.30;;;;;;5079237;28;20461;-78
2021/04/16 06:25:58;;;;;;;7.30;4.10;;;6.80;59.80;;;;;;5087262;28;20052;-80
2021/04/16 06:28:25;;;;;;;6.38;4.07;;;6.80;60.20;;;;;;5077078;28;20048;-79
2021/04/16 06:30:54;;;;;;;5.88;4.00;;;6.80;60.30;;;;;;5101968;28;20458;-79
2021/04/16 06:33:30;;;;;;;8.02;4.55;;;6.80;60.60;;;;;;5085569;28;20055;-80
2021/04/16 06:36:00;;;;;;;8.32;4.40;;;7.00;60.10;;;;;;5073123;28;20046;-79
2021/04/16 06:38:31;;;;;;;7.55;4.10;;;7.00;59.80;;;;;;5083714;28;20097;-79
2021/04/16 06:40:59;;;;;;;7.32;3.97;;;7.20;59.70;;;;;;5080531;28;20056;-79
2021/04/16 06:43:35;;;;;;;8.00;3.85;;;7.20;59.50;;;;;;5090522;28;20105;-79
2021/04/16 06:46:02;;;;;;;5.70;3.85;;;7.30;59.30;;;;;;5082979;28;20060;-78
2021/04/16 06:48:29;;;;;;;9.63;4.10;;;7.90;58.20;;;;;;5085069;28;20077;-78
2021/04/16 06:50:59;;;;;;;7.05;4.05;;;8.00;57.90;;;;;;5086838;28;20446;-79
2021/04/16 06:53:55;;;;;;;5.10;3.13;;;9.10;56.10;;;;;;5096050;28;20102;-79
2021/04/16 06:56:40;;;;;;;6.25;3.58;;;9.40;54.60;;;;;;5088213;28;20044;-79
2021/04/16 06:59:17;;;;;;;6.28;3.40;;;10.40;52.40;;;;;;5089392;28;20474;-78
2021/04/16 07:01:59;;;;;;;12.93;3.85;;;10.10;51.50;;;;;;5086306;28;20109;-79
2021/04/16 07:04:42;;;;;;;11.55;4.65;;;9.80;52.70;;;;;;5085572;28;20131;-80
2021/04/16 07:07:17;;;;;;;5.25;3.30;;;10.10;51.40;;;;;;5089550;28;20491;-81
2021/04/16 07:09:52;;;;;;;6.30;3.40;;;10.50;51.20;;;;;;5094768;28;20048;-80
2021/04/16 07:12:21;;;;;;;6.15;3.50;;;10.90;50.20;;;;;;5083250;28;20056;-80
2021/04/16 07:14:53;;;;;;;4.25;2.95;;;10.80;49.60;;;;;;5084674;28;20043;-79
2021/04/16 07:17:23;;;;;;;5.07;3.50;;;9.80;51.00;;;;;;5082201;28;20036;-80
2021/04/16 07:19:51;;;;;;;3.85;2.50;;;9.60;52.30;;;;;;5083195;28;20039;-80
2021/04/16 07:22:22;;;;;;;7.32;3.22;;;10.30;50.70;;;;;;5083345;28;20041;-80
2021/04/16 07:24:49;;;;;;;;;;;10.80;49.00;;;;;;5081034;28;20048;-81
2021/04/16 07:27:23;;;;;;;5.75;3.20;;;11.00;48.80;;;;;;5077336;28;20281;-79
2021/04/16 07:29:57;;;;;;;5.10;3.28;;;10.80;48.70;;;;;;5082652;28;20167;-78
2021/04/16 07:32:28;;;;;;;5.05;3.20;;;10.50;49.20;;;;;;5081432;28;20048;-72
2021/04/16 07:35:15;;;;;;;4.75;3.10;;;11.00;48.60;;;;;;5096743;28;20759;-73
2021/04/16 07:37:45;;;;;;;4.97;3.20;;;11.30;48.30;;;;;;5086789;28;20071;-73
2021/04/16 07:40:30;;;;;;;5.75;3.05;;;11.00;47.60;;;;;;5073935;28;20060;-72
2021/04/16 07:42:57;;;;;;;4.90;3.25;;;10.40;48.80;;;;;;5084513;28;20537;-73
2021/04/16 07:45:35;;;;;;;3.72;2.67;;;10.00;49.20;;;;;;5094114;28;20040;-72
2021/04/16 07:48:34;;;;;;;4.68;2.88;;;10.40;49.20;;;;;;5088402;28;20047;-73
2021/04/16 07:51:09;;;;;;;4.57;3.17;;;9.30;50.80;;;;;;5075693;28;20136;-78
2021/04/16 07:53:35;;;;;;;5.50;3.35;;;9.90;51.50;;;;;;5087796;28;20448;-73
2021/04/16 07:56:10;;;;;;;7.20;3.10;;;10.30;48.50;;;;;;5081195;27;20032;-72
2021/04/16 07:58:38;;;;;;;4.55;3.03;;;10.90;48.40;;;;;;5090069;28;20524;-74
2021/04/16 08:01:24;;;;;;;7.10;3.05;;;11.10;47.70;;;;;;5077925;28;20048;-71
2021/04/16 08:04:03;;;;;;;6.97;3.13;;;11.20;47.70;;;;;;5084079;28;20083;-72
2021/04/16 08:06:34;;;;;;;6.20;4.05;;;10.90;48.30;;;;;;5083292;28;20079;-72
2021/04/16 08:09:05;;;;;;;5.85;3.13;;;10.60;48.00;;;;;;5081935;28;20116;-72
2021/04/16 08:11:34;;;;;;;5.97;3.33;;;10.00;48.20;;;;;;5081897;28;20040;-71
2021/04/16 08:14:19;;;;;;;6.55;3.38;;;10.80;48.10;;;;;;5080199;28;20044;-71
2021/04/16 08:16:56;;;;;;;6.40;3.20;;;10.60;47.00;;;;;;5083922;28;20048;-71
2021/04/16 08:19:36;;;;;;;4.13;2.80;;;10.20;47.90;;;;;;5078859;28;20164;-70
2021/04/16 08:22:22;;;;;;;4.65;3.22;;;10.60;47.50;;;;;;5074882;28;20055;-71
2021/04/16 08:24:54;;;;;;;4.18;2.70;;;11.00;46.80;;;;;;5073418;28;20052;-71
2021/04/16 08:27:46;;;;;;;6.78;3.28;;;11.30;46.10;;;;;;5075829;28;20055;-71
2021/04/16 08:30:16;;;;;;;7.35;3.00;;;10.60;46.70;;;;;;5071833;28;20141;-71
2021/04/16 08:33:17;;;;;;;5.38;3.25;;;11.10;46.90;;;;;;5073774;28;20055;-71
2021/04/16 08:36:13;;;;;;;6.93;3.38;;;10.60;46.30;;;;;;5071160;28;20117;-70
2021/04/16 08:39:02;;;;;;;5.97;3.42;;;9.60;49.50;;;;;;5068868;28;20045;-71
2021/04/16 08:41:32;;;;;;;4.55;3.20;;;9.70;49.30;;;;;;5071651;28;20059;-71
2021/04/16 08:44:06;;;;;;;4.47;2.93;;;9.80;49.50;;;;;;5073297;28;20052;-71
2021/04/16 08:46:36;;;;;;;5.28;3.33;;;9.80;49.30;;;;;;5071744;28;20154;-71
2021/04/16 08:49:11;;;;;;;6.15;3.33;;;9.60;49.60;;;;;;5074146;28;20056;-71
2021/04/16 08:51:45;;;;;;;6.88;3.40;;;9.50;50.30;;;;;;5074861;28;20048;-71
2021/04/16 08:54:22;;;;;;;4.93;3.50;;;9.30;50.70;;;;;;5071337;28;20043;-72
2021/04/16 08:57:18;;;;;;;5.90;3.38;;;9.50;50.70;;;;;;5071591;28;20165;-72
2021/04/16 08:59:56;;;;;;;6.65;3.13;;;9.50;50.30;;;;;;5070602;28;20062;-72
2021/04/16 09:02:50;;;;;;;4.25;3.25;;;9.60;50.60;;;;;;5072614;28;20067;-72
2021/04/16 09:05:27;;;;;;;3.83;3.10;;;9.60;50.20;;;;;;5071062;28;20055;-72
2021/04/16 09:08:08;;;;;;;4.57;3.00;;;9.50;50.40;;;;;;5072096;28;20056;-74
2021/04/16 09:10:41;;;;;;;6.07;3.17;;;9.60;50.20;;;;;;5075245;28;20060;-73
2021/04/16 09:13:41;;;;;;;5.82;3.00;;;9.60;50.40;;;;;;5072810;28;20052;-73
2021/04/16 09:16:41;;;;;;;4.15;2.83;;;10.00;48.60;;;;;;5074154;28;20052;-74
2021/04/16 09:19:26;;;;;;;3.92;2.85;;;11.00;47.20;;;;;;5075313;28;20295;-73
2021/04/16 09:22:02;;;;;;;7.75;3.03;;;11.00;46.50;;;;;;5075591;28;20059;-73
2021/04/16 09:24:51;;;;;;;3.80;2.45;;;10.80;46.80;;;;;;5077413;28;20078;-73
2021/04/16 09:27:40;;;;;;;5.32;2.40;;;11.60;45.90;;;;;;5073636;28;20426;-73
2021/04/16 09:30:07;;;;;;;3.40;2.40;;;14.50;41.90;;;;;;5071285;28;20048;-73
2021/04/16 09:32:33;;;;;;;3.25;2.13;;;12.80;42.20;;;;;;5072589;28;20059;-72
2021/04/16 09:35:09;;;;;;;3.95;2.78;;;11.30;44.70;;;;;;5074168;28;20472;-73
2021/04/16 09:37:39;;;;;;;3.90;2.67;;;10.50;46.30;;;;;;5070250;28;20410;-72
2021/04/16 09:40:25;;;;;;;6.78;2.78;;;10.70;45.60;;;;;;5071920;28;20048;-71
2021/04/16 09:43:10;;;;;;;2.67;2.00;;;12.50;43.90;;;;;;5071350;28;20056;-71
2021/04/16 09:45:51;;;;;;;4.28;1.85;;;14.10;41.80;;;;;;5070772;28;20434;-71
2021/04/16 09:48:17;;;;;;;3.83;2.05;;;11.50;42.60;;;;;;5073008;28;20052;-71
2021/04/16 09:50:47;;;;;;;5.25;1.98;;;10.80;44.20;;;;;;5070678;28;20519;-72
2021/04/16 09:53:32;;;;;;;3.70;1.70;;;10.80;44.50;;;;;;5072492;28;20528;-71
2021/04/16 09:56:00;;;;;;;4.13;1.98;;;10.60;44.60;;;;;;5070760;28;20055;-76
2021/04/16 09:58:38;;;;;;;3.15;2.10;;;10.70;44.70;;;;;;5072592;28;20495;-73
2021/04/16 10:01:27;;;;;;;3.03;1.77;;;10.70;44.90;;;;;;5072049;28;20055;-69
2021/04/16 10:04:11;;;;;;;5.95;2.13;;;10.80;44.50;;;;;;5068406;28;20073;-69
2021/04/16 10:06:39;;;;;;;3.13;1.98;;;11.00;44.30;;;;;;5070220;28;20117;-68
2021/04/16 10:09:18;;;;;;;3.28;1.80;;;11.40;43.20;;;;;;5068306;28;20066;-67
2021/04/16 10:11:59;;;;;;;2.72;1.80;;;11.60;42.90;;;;;;5071226;28;20048;-70
2021/04/16 10:14:34;;;;;;;4.13;1.83;;;11.90;42.40;;;;;;5070613;28;20541;-69
2021/04/16 10:17:16;;;;;;;3.00;1.95;;;12.10;42.00;;;;;;5067657;28;20470;-69
2021/04/16 10:19:45;;;;;;;2.05;1.60;;;11.50;41.90;;;;;;5073581;28;20052;-68
2021/04/16 10:22:21;;;;;;;2.70;1.98;;;10.80;42.90;;;;;;5069440;28;20875;-68
2021/04/16 12:41:24;;;;;;;2.20;1.50;;;10.50;46.40;;;;;;5085281;28;20123;-72
2021/04/16 12:43:52;;;;;;;2.30;1.70;;;10.30;46.70;;;;;;5081653;28;20524;-72
2021/04/16 12:46:22;;;;;;;1.80;1.50;;;10.20;46.80;;;;;;5081363;28;20164;-72
2021/04/16 12:48:49;;;;;;;;;;;10.20;46.90;;;;;;5078984;28;20573;-72
2021/04/16 12:51:15;;;;;;;2.22;1.42;;;10.30;46.70;;;;;;5080562;28;20507;-75
2021/04/16 12:53:42;;;;;;;2.38;1.50;;;10.20;46.70;;;;;;5081161;28;20113;-73
2021/04/16 12:56:12;;;;;;;4.22;1.40;;;10.30;46.60;;;;;;5080818;28;20433;-73
2021/04/16 12:58:41;;;;;;;2.47;1.60;;;10.40;46.70;;;;;;5080971;28;20048;-70
2021/04/16 13:01:25;;;;;;;3.38;1.58;;;10.50;46.70;;;;;;5081344;28;20058;-71
2021/04/16 13:03:53;;;;;;;2.15;1.30;;;10.70;46.60;;;;;;5081799;28;20106;-70
2021/04/16 13:06:27;;;;;;;1.65;1.48;;;11.00;46.10;;;;;;5082255;28;20044;-70
2021/04/16 13:08:53;;;;;;;4.43;1.40;;;11.20;45.70;;;;;;5078776;28;20060;-70
2021/04/16 13:11:21;;;;;;;3.63;1.67;;;11.30;45.80;;;;;;5083848;28;20140;-70
2021/04/16 13:13:49;;;;;;;2.60;1.67;;;11.20;45.60;;;;;;5079554;28;20524;-70
2021/04/16 13:16:16;;;;;;;3.67;1.55;;;11.10;45.50;;;;;;5081282;28;20047;-70
2021/04/16 13:18:49;;;;;;;2.15;1.50;;;11.20;45.50;;;;;;5083069;28;20052;-70
2021/04/16 13:21:25;;;;;;;4.30;1.70;;;11.20;45.00;;;;;;5083149;28;20051;-70
2021/04/16 13:23:51;;;;;;;3.15;1.77;;;11.20;44.90;;;;;;5079341;28;20072;-71
2021/04/16 13:26:18;;;;;;;3.55;1.50;;;11.30;44.20;;;;;;5081369;28;20114;-70
2021/04/16 13:28:45;;;;;;;2.30;1.35;;;10.90;44.60;;;;;;5082889;28;20101;-70
2021/04/16 13:31:13;;;;;;;3.28;1.65;;;10.90;45.10;;;;;;5082407;28;20076;-70
2021/04/16 13:33:43;;;;;;;2.35;1.58;;;10.90;45.40;;;;;;5082648;28;20163;-71
2021/04/16 13:36:20;;;;;;;2.65;1.63;;;10.40;45.60;;;;;;5081818;28;20467;-69
2021/04/16 13:38:47;;;;;;;2.53;1.73;;;10.50;46.20;;;;;;5083069;28;20052;-69
2021/04/16 13:41:13;;;;;;;3.17;1.63;;;10.50;45.80;;;;;;5079403;28;20059;-68
2021/04/16 13:43:40;;;;;;;3.50;1.67;;;10.60;45.90;;;;;;5082661;28;20056;-70
2021/04/16 13:46:14;;;;;;;3.15;1.40;;;10.50;45.80;;;;;;5079681;28;20060;-71
2021/04/16 13:48:46;;;;;;;3.88;1.77;;;10.50;45.50;;;;;;5081355;28;20060;-69
2021/04/16 13:51:13;;;;;;;2.65;1.30;;;10.70;45.40;;;;;;5080606;28;20052;-69
2021/04/16 13:53:40;;;;;;;2.38;1.45;;;10.70;45.10;;;;;;5080936;28;20428;-70
2021/04/16 13:56:09;;;;;;;3.38;1.73;;;10.90;45.10;;;;;;5080979;28;20407;-70
2021/04/16 13:58:36;;;;;;;2.25;1.63;;;11.00;44.90;;;;;;5080365;28;20060;-69
2021/04/16 14:01:09;;;;;;;9.35;1.90;;;11.00;44.60;;;;;;5081826;28;20047;-69
2021/04/16 14:03:44;;;;;;;2.22;1.50;;;11.20;44.60;;;;;;5081291;28;20121;-70
2021/04/16 14:06:18;;;;;;;2.45;1.30;;;12.00;43.60;;;;;;5082820;28;20053;-70
2021/04/16 14:09:00;;;;;;;2.45;1.40;;;12.50;42.60;;;;;;5080185;28;20051;-71
2021/04/16 14:11:31;;;;;;;2.78;1.40;;;12.20;42.70;;;;;;5081409;28;20156;-69
2021/04/16 14:14:00;;;;;;;1.30;1.20;;;11.80;43.10;;;;;;5075908;28;20052;-70
2021/04/16 14:16:30;;;;;;;1.85;1.40;;;11.50;43.60;;;;;;5079930;28;20067;-70
2021/04/16 14:18:59;;;;;;;3.03;1.60;;;11.50;43.80;;;;;;5081092;28;20084;-70
2021/04/16 14:21:38;;;;;;;1.80;1.40;;;11.40;43.70;;;;;;5077897;28;20123;-69
2021/04/16 14:24:10;;;;;;;2.80;1.50;;;11.30;44.10;;;;;;5078982;28;20089;-72
2021/04/16 14:26:36;;;;;;;6.22;1.42;;;11.20;44.40;;;;;;5082267;28;20048;-70
2021/04/16 14:29:04;;;;;;;4.05;1.70;;;10.90;44.70;;;;;;5079260;28;20078;-70
2021/04/16 14:31:30;;;;;;;6.43;1.77;;;10.80;45.40;;;;;;5080940;28;20047;-71
2021/04/16 14:33:57;;;;;;;1.73;1.25;;;10.80;45.70;;;;;;5081246;28;20048;-70
2021/04/16 14:36:33;;;;;;;4.00;2.53;;;11.00;45.60;;;;;;5081786;28;20040;-71
2021/04/16 14:39:01;;;;;;;3.88;1.45;;;10.70;45.80;;;;;;5079136;28;20055;-70
2021/04/16 14:41:33;;;;;;;4.53;1.55;;;10.70;46.00;;;;;;5080937;28;20055;-70
2021/04/16 14:44:00;;;;;;;3.40;1.58;;;10.60;46.10;;;;;;5079990;28;20113;-71
2021/04/16 14:46:27;;;;;;;1.35;1.20;;;10.60;46.50;;;;;;5079837;28;20048;-70
2021/04/16 14:48:54;;;;;;;2.28;1.20;;;10.50;46.30;;;;;;5076884;28;20151;-71
2021/04/16 14:51:25;;;;;;;4.40;1.50;;;10.40;47.00;;;;;;5077259;28;20101;-71
2021/04/16 14:53:57;;;;;;;3.10;1.38;;;10.70;46.40;;;;;;5081981;28;20083;-70
2021/04/16 14:56:23;;;;;;;2.00;1.30;;;10.60;45.90;;;;;;5079569;28;20476;-70
2021/04/16 14:58:57;;;;;;;1.98;1.45;;;10.60;46.90;;;;;;5078451;28;20044;-70
2021/04/16 15:01:23;;;;;;;1.88;1.45;;;10.50;46.80;;;;;;5078823;28;20052;-70
2021/04/16 15:03:54;;;;;;;5.97;1.40;;;10.50;46.50;;;;;;5077754;28;20040;-69
2021/04/16 15:06:23;;;;;;;2.40;1.40;;;10.60;46.40;;;;;;5078911;28;20059;-70
2021/04/16 15:08:55;;;;;;;2.78;1.55;;;10.60;46.20;;;;;;5079658;28;20076;-70
2021/04/16 15:11:37;;;;;;;2.70;1.48;;;10.50;46.20;;;;;;5079073;28;20062;-69
2021/04/16 15:14:05;;;;;;;2.70;1.90;;;10.30;46.70;;;;;;5077631;28;20586;-70
2021/04/16 15:16:39;;;;;;;6.35;1.23;;;10.50;47.20;;;;;;5079628;28;20043;-71
2021/04/16 15:19:06;;;;;;;3.30;1.52;;;10.40;47.20;;;;;;5067338;28;20140;-74
2021/04/16 15:21:32;;;;;;;5.82;1.75;;;10.40;47.70;;;;;;5068209;28;20388;-71
2021/04/16 15:23:58;;;;;;;3.83;1.27;;;10.50;47.90;;;;;;5067664;28;20073;-72
2021/04/16 15:26:26;;;;;;;3.38;1.50;;;10.40;47.50;;;;;;5084681;28;20512;-73
2021/04/16 15:29:23;;;;;;;4.68;1.58;;;10.30;47.80;;;;;;5068256;28;20048;-73